Tyner, KY (40486)

5:27 PM EDT on July 28, 2014 (GMT -0400)
Southern McKee (KKYMCKEE2) Elev 1138 ft | 37.36 °N, 83.94 °W | Change Station

Current weather conditions updated 5 seconds ago

Mostly Cloudy
Mostly Cloudy
72.3 °F
Feels Like 75 °F
N
0.0
Wind Variable Wind from WSW
Gusts 4.2 mph

Tomorrow is forecast to be nearly the same temperature as today.

Today
High -- | Low -- °F
--% Chance of Precip.
Yesterday
High -- | Low -- °F
Precip. -- in
6:36 AM 8:46 PM
Waxing Crescent, 3% visible
Pressure 29.95 in
Visibility 10.0 miles
Clouds Few 3400 ft
Scattered Clouds 4100 ft
Mostly Cloudy 6000 ft
Heat Index 75 °F
Dew Point 61 °F
Humidity 68%
Rainfall 0.00 in
Snow Depth Not available.
UV 3 out of 12
Pollen 3.60 out of 12
Air Quality Not available.
Flu Activity Not available.
METAR KLOZ 282053Z AUTO 36013G17KT 10SM FEW034 SCT041 BKN060 25/16 A2999 RMK AO2 SLP142 T02500156 53001

More Conditions Fewer Conditions

Pressure 29.95 in
Visibility 10.0 miles
Clouds Few 3400 ft
Scattered Clouds 4100 ft
Mostly Cloudy 6000 ft
Heat Index 75 °F
Dew Point 61 °F
Humidity 68%
Rainfall 0.00 in
Snow Depth Not available.
UV 3 out of 12
Pollen 3.60 out of 12
Air Quality Not available.
Flu Activity Not available.
METAR KLOZ 282053Z AUTO 36013G17KT 10SM FEW034 SCT041 BKN060 25/16 A2999 RMK AO2 SLP142 T02500156 53001

More Conditions Fewer Conditions

10-Day Weather Forecast

Almanac

Astronomy

Jul. 28, 2014 Rise Set
Actual Time 6:36 AM EDT 8:46 PM EDT
Civil Twilight 6:07 AM EDT 9:16 PM EDT
Nautical Twilight 5:31 AM EDT 9:51 PM EDT
Astronomical Twilight 4:52 AM EDT 10:30 PM EDT
Moon 8:14 AM EDT 9:31 PM EDT
Length of Visible Light 15h 08m
Length of Day
14h 10m
Tomorrow will be 1m 41s shorter.
Waxing Crescent, 3% of the Moon is Illuminated
Today
Waxing Crescent
Aug 3
First Quarter
Aug 10
Full
Aug 17
Last Quarter
Aug 25
New

Today's Extremes

State Highs State Lows

Community

WunderPhotos

Upload Photos

1,738,493 photos uploaded!

WunderBlogs® & News

Nearby

Snow Depth

Station Depth Elevation
No new snow has been reported.

Earthquake Activity

City Distance Mag. Time & Date
No recent earthquake activity has been reported nearby.
Minimum magnitude displayed is 2.5.

Coastal Water Temperatures

Place Temperature
No Stations Reporting

Nearby Weather Stations

Station Location Temp. Heat Index Dew Point Humidity Wind Precip. Elev Updated Type
Southern McKee, McKee, KY 72.3 °F 75 °F 61 °F 68% WSW  at  0.0 mph 0.00 in / hr 1138 ft 5:27 PM EDT Rapid Fire
APRSWXNET London KY US, Fall Rock, KY 70 °F - 67 °F 90% North  at  4 mph 0.00 in / hr 1515 ft 3:55 PM EDT MADIS
RAWS PEABODY KY, Big Creek, KY 72 °F 75 °F 61 °F 69% SW  at  2 mph 0.00 in / hr 1464 ft 4:01 PM EDT MADIS
MSWO, London, KY 75.7 °F 78 °F 57 °F 52% ENE  at  2.7 mph 0.00 in / hr 1163 ft 5:27 PM EDT Rapid Fire
Irvine, KY 72.7 °F 77 °F 42 °F 33% WSW  at  2.2 mph 0.00 in / hr 719 ft 5:27 PM EDT Rapid Fire

Show More Stations Show Fewer Stations